Latest Weather Observations for Hobart Airport

IDT60801

Issued at 9:01 am EST Wednesday 29 May 2024 (issued every 10 minutes, with the page automatically refreshed every 10 minutes)

About weather observations | Map of weather stations | Latest weather observations for TAS | Other Formats
Station Details ID: 094250 Name: HOBART AIRPORT Lat: -42.83 Lon: 147.51 Height: 2.2 m
Data from the previous 72 hours. | See also: Recent months at Hobart Airport
Date/Time
EST
Temp
°C
App
Temp
°C
Dew
Point
°C
Rel
Hum
%
Delta-T
°C
Wind Press
QNH
hPa
Press
MSL
hPa
Rain since
9am
mm
Dir  Spd
km/h
Gust
km/h
Spd
kts
Gust
kts
29/08:30am 13.3 8.5 7.3 67 2.9 NNW 22 33 12 18 1019.1 1019.1 0.2
29/08:00am 13.3 8.5 7.3 67 2.9 NNW 22 33 12 18 1019.1 1019.1 0.2
29/07:30am 13.3 8.1 7.3 67 2.9 NNW 24 35 13 19 1018.8 1018.8 0.2
29/07:00am 13.3 7.4 7.3 67 2.9 NNW 28 41 15 22 1018.7 1018.7 0.2
29/06:30am 12.9 7.0 7.4 69 2.7 NNW 28 39 15 21 1018.5 1018.5 0.2
29/06:00am 13.1 7.5 7.3 68 2.8 NNW 26 37 14 20 1018.5 1018.5 0.2
29/05:30am 13.4 8.2 7.2 66 3.0 NNW 24 35 13 19 1018.6 1018.6 0.2
29/05:00am 14.2 8.5 6.8 61 3.6 NNW 26 35 14 19 1018.6 1018.6 0.2
29/04:30am 13.2 8.4 7.4 68 2.8 NNW 22 30 12 16 1018.9 1018.9 0.2
29/04:00am 11.1 7.5 6.8 75 2.0 NNW 15 19 8 10 1019.2 1019.2 0.2
29/03:30am 12.2 8.4 7.5 73 2.3 NNW 17 22 9 12 1019.3 1019.3 0.2
29/03:00am 12.6 8.3 7.9 73 2.3 NNW 20 26 11 14 1019.5 1019.5 0.2
29/02:30am 12.6 8.3 7.9 73 2.3 NNW 20 30 11 16 1019.7 1019.7 0.2
29/02:00am 13.2 8.8 7.2 67 2.9 NNW 20 28 11 15 1019.6 1019.6 0.2
29/01:30am 13.3 8.4 7.1 66 3.0 NNW 22 30 12 16 1019.4 1019.4 0.2
29/01:00am 13.7 9.1 6.6 62 3.4 NNW 20 32 11 17 1019.5 1019.5 0.2
29/12:30am 12.9 10.7 6.3 64 3.1 WNW 7 11 4 6 1019.8 1019.8 0.2
29/12:00am 12.1 9.9 6.4 68 2.7 SE 7 11 4 6 1019.9 1019.9 0.2
 
Date/Time
EST
Temp
°C
App
Temp
°C
Dew
Point
°C
Rel
Hum
%
Delta-T
°C
Wind Press
QNH
hPa
Press
MSL
hPa
Rain since
9am
mm
Dir  Spd
km/h
Gust
km/h
Spd
kts
Gust
kts
28/11:30pm 13.4 11.2 6.3 62 3.4 NE 7 11 4 6 1020.0 1020.0 0.2
28/11:00pm 13.6 11.1 6.7 63 3.3 NNE 9 13 5 7 1020.1 1020.1 0.2
28/10:30pm 14.7 10.7 6.8 59 3.8 NNW 17 24 9 13 1020.2 1020.2 0.2
28/10:00pm 13.7 10.6 9.0 73 2.4 NNW 15 20 8 11 1020.2 1020.2 0.2
28/09:30pm 10.5 8.8 10.0 97 0.3 SSE 9 13 5 7 1020.4 1020.4 0.2
28/09:00pm 10.7 9.2 9.3 91 0.7 N 7 11 4 6 1020.5 1020.5 0.2
28/08:30pm 12.7 11.0 9.9 83 1.4 NNW 9 13 5 7 1020.7 1020.7 0.2
28/08:00pm 11.1 10.0 10.6 97 0.3 WSW 7 7 4 4 1020.8 1020.8 0.2
28/07:30pm 11.6 11.6 11.3 98 0.2 N 2 7 1 4 1020.8 1020.8 0.2
28/07:00pm 11.5 11.8 11.0 97 0.3 CALM 0 0 0 0 1020.6 1020.6 0.2
28/06:30pm 11.6 11.2 11.0 96 0.3 NE 4 7 2 4 1020.6 1020.6 0.2
28/06:00pm 12.0 12.4 11.4 96 0.3 CALM 0 0 0 0 1020.5 1020.5 0.2
28/05:30pm 12.5 13.1 11.9 96 0.3 CALM 0 0 0 0 1020.4 1020.4 0.2
28/05:00pm 12.8 13.5 12.2 96 0.3 CALM 0 0 0 0 1020.4 1020.4 0.2
28/04:30pm 13.3 13.7 12.4 94 0.5 SE 2 6 1 3 1020.4 1020.4 0.2
28/04:00pm 13.6 14.3 12.2 91 0.8 CALM 0 0 0 0 1020.5 1020.5 0.2
28/03:30pm 14.5 14.1 12.4 87 1.1 SSW 6 7 3 4 1020.5 1020.5 0.2
28/03:00pm 14.9 15.1 12.0 83 1.6 S 2 7 1 4 1020.4 1020.4 0.2
28/02:30pm 14.3 13.1 11.5 83 1.5 SE 9 11 5 6 1020.4 1020.4 0.2
28/02:00pm 14.2 12.4 11.0 81 1.7 SSE 11 15 6 8 1020.4 1020.4 0.2
28/01:30pm 15.4 14.6 11.2 76 2.2 NE 6 9 3 5 1020.5 1020.5 0.2
28/01:00pm 15.9 14.7 11.7 76 2.3 NE 9 13 5 7 1020.4 1020.4 0.2
28/12:30pm 15.4 14.8 11.6 78 2.0 NE 6 9 3 5 1020.6 1020.6 0.2
28/12:00pm 14.4 13.0 11.0 80 1.8 NE 9 13 5 7 1020.9 1020.9 0.2
28/11:30am 13.8 12.6 11.5 86 1.2 NE 9 11 5 6 1021.1 1021.1 0.2
28/11:00am 13.3 12.2 12.0 92 0.7 NNE 9 13 5 7 1021.5 1021.5 0.2
28/10:40am 13.3 12.0 12.4 94 0.5 NE 11 13 6 7 1021.4 1021.4 0.2
28/10:30am 13.2 11.8 12.3 94 0.5 NNE 11 13 6 7 1021.4 1021.4 0.0
28/10:00am 12.6 12.0 12.3 98 0.2 E 7 11 4 6 1021.1 1021.1 0.0
28/09:30am 12.3 10.1 12.1 99 0.1 SSE 15 19 8 10 1021.1 1021.1 0.0
28/09:17am 12.2 9.6 12.0 99 0.1 SSE 17 22 9 12 1021.0 1021.0 0.0
28/09:00am 12.3 9.7 12.0 98 0.2 SSE 17 22 9 12 1020.6 1020.6 0.2
28/08:50am 12.3 9.6 11.8 97 0.3 SSE 17 22 9 12 1020.8 1020.8 0.2
28/08:30am 12.1 10.3 10.7 91 0.7 SSW 11 15 6 8 1020.1 1020.1 0.0
28/08:19am 12.4 11.0 10.8 90 0.8 SSW 9 17 5 9 1019.7 1019.7 0.0
28/08:00am 12.2 10.8 8.9 80 1.6 W 6 9 3 5 1018.9 1018.9 0.0
28/07:30am 12.2 9.3 8.1 76 2.0 WNW 13 15 7 8 1018.3 1018.3 0.0
28/07:00am 13.2 10.2 7.9 70 2.6 NW 13 22 7 12 1017.8 1017.8 0.0
28/06:30am 11.5 8.7 6.8 73 2.2 NW 11 15 6 8 1017.5 1017.5 0.0
28/06:00am 11.8 8.5 6.5 70 2.5 WNW 13 17 7 9 1017.3 1017.3 0.0
28/05:30am 13.4 9.0 6.5 63 3.3 NNW 19 24 10 13 1017.2 1017.2 0.0
28/05:00am 12.3 8.1 5.9 65 3.0 NNW 17 24 9 13 1017.6 1017.6 0.0
28/04:30am 11.3 6.7 5.4 67 2.7 NNW 19 24 10 13 1017.3 1017.3 0.0
28/04:00am 11.5 6.6 5.2 65 2.9 NNW 20 32 11 17 1016.8 1016.8 0.0
28/03:30am 11.8 7.0 5.4 65 3.0 N 20 26 11 14 1016.9 1016.9 0.0
28/03:00am 12.3 7.5 5.5 63 3.2 N 20 32 11 17 1017.0 1017.0 0.0
28/02:30am 12.2 8.3 5.4 63 3.1 N 15 20 8 11 1017.9 1017.9 0.0
28/02:00am 11.8 8.6 5.2 64 3.0 NNW 11 17 6 9 1017.6 1017.6 0.0
28/01:30am 11.1 7.9 5.0 66 2.8 N 11 17 6 9 1017.9 1017.9 0.0
28/01:00am 11.7 8.5 5.3 65 2.9 NNW 11 17 6 9 1018.1 1018.1 0.0
28/12:30am 11.4 7.2 5.5 67 2.7 NW 17 22 9 12 1018.3 1018.3 0.0
28/12:00am 10.5 4.9 5.3 70 2.4 NW 24 28 13 15 1018.2 1018.2 0.0
 
Date/Time
EST
Temp
°C
App
Temp
°C
Dew
Point
°C
Rel
Hum
%
Delta-T
°C
Wind Press
QNH
hPa
Press
MSL
hPa
Rain since
9am
mm
Dir  Spd
km/h
Gust
km/h
Spd
kts
Gust
kts
27/11:30pm 11.3 7.1 5.6 68 2.6 N 17 26 9 14 1018.4 1018.4 0.0
27/11:00pm 12.0 8.5 5.4 64 3.0 NNW 13 20 7 11 1018.1 1018.1 0.0
27/10:30pm 12.2 6.6 5.6 64 3.1 NW 24 32 13 17 1018.6 1018.6 0.0
27/10:00pm 12.5 7.7 5.4 62 3.3 NNW 20 26 11 14 1018.2 1018.2 0.0
27/09:30pm 12.3 7.6 5.2 62 3.3 NNW 19 26 10 14 1018.2 1018.2 0.0
27/09:00pm 11.5 7.3 5.6 67 2.7 NW 17 28 9 15 1018.1 1018.1 0.0
27/08:30pm 12.6 8.3 5.1 60 3.5 NNW 17 26 9 14 1017.8 1017.8 0.0
27/08:00pm 12.5 8.5 5.0 60 3.4 NNW 15 22 8 12 1018.3 1018.3 0.0
27/07:30pm 12.8 8.0 4.5 57 3.8 NNW 19 24 10 13 1018.2 1018.2 0.0
27/07:00pm 14.1 8.0 4.7 53 4.3 WNW 26 43 14 23 1018.4 1018.4 0.0
27/06:30pm 12.9 8.5 4.6 57 3.8 WNW 17 26 9 14 1018.6 1018.6 0.0
27/06:00pm 13.5 8.7 4.9 56 4.0 NW 19 37 10 20 1018.2 1018.2 0.0
27/05:30pm 12.8 9.2 4.8 58 3.7 NNW 13 17 7 9 1017.9 1017.9 0.0
27/05:00pm 13.4 9.7 4.3 54 4.1 WNW 13 17 7 9 1017.6 1017.6 0.0
27/04:30pm 14.1 10.0 4.4 52 4.5 W 15 22 8 12 1017.4 1017.4 0.0
27/04:00pm 15.4 11.0 4.5 48 5.1 WNW 17 28 9 15 1017.2 1017.2 0.0
27/03:30pm 16.3 11.6 5.0 47 5.4 WNW 19 30 10 16 1017.0 1017.0 0.0
27/03:00pm 16.4 9.9 4.8 46 5.5 WNW 28 41 15 22 1016.7 1016.7 0.0
27/02:30pm 16.5 10.5 5.2 47 5.4 NW 26 39 14 21 1016.5 1016.5 0.0
27/02:00pm 16.6 10.1 4.6 45 5.6 WNW 28 39 15 21 1016.6 1016.6 0.0
27/01:30pm 16.4 9.5 4.8 46 5.5 NW 30 39 16 21 1016.9 1016.9 0.0
27/01:00pm 16.2 8.9 4.3 45 5.5 NW 32 43 17 23 1017.2 1017.2 0.0
27/12:30pm 16.0 9.8 4.4 46 5.4 NW 26 41 14 22 1017.2 1017.2 0.0
27/12:00pm 15.4 9.2 4.2 47 5.2 NW 26 35 14 19 1017.5 1017.5 0.0
27/11:30am 15.2 8.5 3.7 46 5.3 NW 28 41 15 22 1017.8 1017.8 0.0
27/11:00am 15.1 7.7 4.2 48 5.0 NW 32 44 17 24 1017.9 1017.9 0.0
27/10:30am 14.9 8.4 4.6 50 4.8 NW 28 37 15 20 1018.1 1018.1 0.0
27/10:00am 14.6 8.4 4.3 50 4.7 NW 26 32 14 17 1018.1 1018.1 0.0
27/09:30am 13.7 9.0 5.1 56 4.0 NNW 19 26 10 14 1018.4 1018.4 0.0
27/09:00am 12.7 9.0 6.1 64 3.1 NNW 15 19 8 10 1018.3 1018.3 0.0
27/08:30am 9.8 7.2 6.3 79 1.6 NW 9 15 5 8 1018.3 1018.3 0.0
27/08:00am 8.5 6.3 5.3 80 1.4 ENE 6 7 3 4 1018.2 1018.2 0.0
27/07:30am 8.4 6.0 5.2 80 1.4 N 7 9 4 5 1017.9 1017.9 0.0
27/07:00am 9.2 5.4 5.6 78 1.6 NNW 15 22 8 12 1017.5 1017.5 0.0
27/06:30am 8.8 4.2 5.5 80 1.5 NW 19 24 10 13 1017.3 1017.3 0.0
27/06:00am 7.8 3.5 5.4 85 1.1 NW 17 19 9 10 1017.4 1017.4 0.0
27/05:30am 9.7 5.5 5.5 75 1.9 NW 17 19 9 10 1017.2 1017.2 0.0
27/05:00am 8.6 6.3 5.0 78 1.6 NW 6 7 3 4 1017.1 1017.1 0.0
27/04:30am 9.6 6.0 5.0 73 2.1 NNW 13 19 7 10 1016.8 1016.8 0.0
27/04:00am 9.4 5.0 5.0 74 2.0 NNW 17 26 9 14 1017.1 1017.1 0.0
27/03:30am 8.9 5.6 4.3 73 2.0 NNW 11 13 6 7 1017.7 1017.7 0.0
27/03:00am 9.1 4.7 4.9 75 1.9 NNW 17 20 9 11 1018.0 1018.0 0.0
27/02:30am 9.6 5.2 5.0 73 2.1 NNW 17 24 9 13 1018.4 1018.4 0.0
27/02:00am 9.2 6.2 5.8 79 1.5 NW 11 17 6 9 1018.7 1018.7 0.0
27/01:30am 9.3 5.7 4.9 74 2.0 NNW 13 19 7 10 1019.0 1019.0 0.0
27/01:00am 11.0 6.1 4.9 66 2.8 NNW 20 28 11 15 1019.1 1019.1 0.0
27/12:30am 8.9 4.6 5.3 78 1.6 NW 17 20 9 11 1019.5 1019.5 0.0
27/12:00am 6.9 3.6 4.7 86 1.0 WNW 11 13 6 7 1020.0 1020.0 0.0
 
Date/Time
EST
Temp
°C
App
Temp
°C
Dew
Point
°C
Rel
Hum
%
Delta-T
°C
Wind Press
QNH
hPa
Press
MSL
hPa
Rain since
9am
mm
Dir  Spd
km/h
Gust
km/h
Spd
kts
Gust
kts
26/11:30pm 8.4 5.7 5.5 82 1.3 NW 9 15 5 8 1020.1 1020.1 0.0
26/11:00pm 8.1 4.9 5.2 82 1.3 NW 11 15 6 8 1020.4 1020.4 0.0
26/10:30pm 8.8 6.1 5.7 81 1.4 WNW 9 13 5 7 1020.8 1020.8 0.0
26/10:00pm 9.5 6.2 6.2 80 1.5 NW 13 15 7 8 1021.0 1021.0 0.0
26/09:30pm 9.5 6.2 6.6 82 1.3 NW 13 17 7 9 1021.2 1021.2 0.0
26/09:00pm 9.7 7.1 7.6 87 1.0 WNW 11 15 6 8 1021.3 1021.3 0.0
26/08:30pm 9.2 7.5 7.5 89 0.8 NW 6 9 3 5 1021.3 1021.3 0.0
26/08:00pm 9.3 8.7 7.4 88 0.9 CALM 0 0 0 0 1021.4 1021.4 0.0
26/07:30pm 9.7 9.1 7.6 87 1.0 CALM 0 6 0 3 1021.5 1021.5 0.0
26/07:00pm 10.1 8.5 8.2 88 0.9 WNW 6 7 3 4 1021.7 1021.7 0.0
26/06:30pm 9.8 8.9 7.7 87 1.0 N 2 6 1 3 1021.9 1021.9 0.0
26/06:00pm 9.6 7.9 7.7 88 0.9 NNW 6 7 3 4 1022.2 1022.2 0.0
26/05:30pm 9.9 9.4 7.7 86 1.1 CALM 0 0 0 0 1022.2 1022.2 0.0
26/05:00pm 10.3 8.7 8.1 86 1.1 WSW 6 11 3 6 1022.4 1022.4 0.0
26/04:30pm 10.7 9.1 7.8 82 1.4 SSE 6 6 3 3 1022.6 1022.6 0.0
26/04:00pm 11.3 10.7 7.4 77 1.9 CALM 0 0 0 0 1022.8 1022.8 0.0
26/03:30pm 12.5 10.5 7.2 70 2.6 SE 7 9 4 5 1023.0 1023.0 0.0
26/03:00pm 12.9 10.5 7.1 68 2.8 SSE 9 11 5 6 1023.2 1023.2 0.0
26/02:30pm 14.1 12.3 5.5 56 4.1 WNW 4 7 2 4 1023.2 1023.2 0.0
26/02:00pm 13.4 10.7 5.6 59 3.6 NW 9 13 5 7 1023.3 1023.3 0.0
26/01:30pm 13.2 10.6 6.3 63 3.3 NW 9 13 5 7 1023.7 1023.7 0.0
26/01:00pm 12.0 9.0 6.1 67 2.8 NW 11 15 6 8 1024.2 1024.2 0.0
26/12:30pm 11.8 9.5 5.9 67 2.8 N 7 9 4 5 1024.7 1024.7 0.0
26/12:00pm 10.8 7.1 6.4 74 2.0 WNW 15 17 8 9 1025.4 1025.4 0.0
26/11:30am 9.5 6.0 5.3 75 1.9 NW 13 19 7 10 1026.1 1026.1 0.0
26/11:00am 8.2 4.0 5.5 83 1.2 NW 17 19 9 10 1026.7 1026.7 0.0
26/10:30am 7.5 3.2 5.3 86 1.0 NW 17 20 9 11 1027.0 1027.0 0.0
26/10:00am 6.6 2.6 5.1 90 0.7 NW 15 20 8 11 1027.2 1027.2 0.0
26/09:30am 5.9 1.8 4.5 91 0.6 NW 15 20 8 11 1027.5 1027.5 0.0

Other formats

Comma delimited format used in spreadsheet applications
http://www.bom.gov.au/fwo/IDT60801/IDT60801.94619.axf

JavaScript Object Notation format (JSON) in row-major order
http://www.bom.gov.au/fwo/IDT60801/IDT60801.94619.json

Data quality

Most of these data are generated automatically and are frequently updated. Quality checks on data are not normally performed. It is possible for incorrect values to appear. Refer to information at About Latest Weather Observations and please check the disclaimer before using these data.